createdAt,value
2019-05-17T00:01:23.791Z,101345.09
2019-05-17T00:03:59.303Z,101336.42
2019-05-17T00:06:36.797Z,101331.92
2019-05-17T00:09:11.152Z,101334.34
2019-05-17T00:11:48.108Z,101329.45
2019-05-17T00:14:23.110Z,101317.63
2019-05-17T00:16:58.111Z,101313.67
2019-05-17T00:19:33.446Z,101308.01
2019-05-17T00:22:09.733Z,101311.53
2019-05-17T00:24:44.827Z,101310.41
2019-05-17T00:27:21.458Z,101304.11
2019-05-17T00:29:57.116Z,101303.69
2019-05-17T00:32:32.438Z,101302.24
2019-05-17T00:35:07.754Z,101299.02
2019-05-17T00:37:43.292Z,101301.64
2019-05-17T00:40:19.051Z,101295.96
2019-05-17T00:42:54.054Z,101289.92
2019-05-17T00:45:29.074Z,101293.45
2019-05-17T00:48:06.293Z,101291.83
2019-05-17T00:50:40.966Z,101294.02
2019-05-17T00:53:16.446Z,101284.66
2019-05-17T00:55:51.663Z,101283.98
2019-05-17T00:58:26.676Z,101284.50
2019-05-17T01:01:02.725Z,101282.72
2019-05-17T01:03:37.724Z,101289.72
2019-05-17T01:06:12.839Z,101290.58
2019-05-17T01:09:00.472Z,101290.42
2019-05-17T01:11:26.939Z,101282.81
2019-05-17T01:14:01.724Z,101284.13
2019-05-17T01:16:36.894Z,101281.52
2019-05-17T01:19:11.981Z,101276.55
2019-05-17T01:21:47.568Z,101272.45
2019-05-17T01:24:22.589Z,101279.39
2019-05-17T01:26:57.583Z,101273.98
2019-05-17T01:29:32.977Z,101266.56
2019-05-17T01:32:08.165Z,101262.11
2019-05-17T01:34:43.165Z,101255.59
2019-05-17T01:37:18.173Z,101250.80
2019-05-17T01:39:53.168Z,101246.02
2019-05-17T01:42:28.458Z,101242.84
2019-05-17T01:45:03.478Z,101243.93
2019-05-17T01:47:38.550Z,101241.81
2019-05-17T01:50:14.046Z,101238.34
2019-05-17T01:52:49.116Z,101240.44
2019-05-17T01:55:26.582Z,101232.00
2019-05-17T01:58:01.628Z,101233.84
2019-05-17T02:00:37.665Z,101230.26
2019-05-17T02:03:13.123Z,101230.97
2019-05-17T02:05:48.143Z,101228.11
2019-05-17T02:08:23.131Z,101219.98
2019-05-17T02:10:58.239Z,101217.39
2019-05-17T02:13:33.506Z,101219.91
2019-05-17T02:16:08.627Z,101211.63
2019-05-17T02:18:43.600Z,101212.17
2019-05-17T02:21:18.644Z,101217.02
2019-05-17T02:23:53.630Z,101213.02
2019-05-17T02:26:28.636Z,101214.16
2019-05-17T02:29:03.813Z,101213.37
2019-05-17T02:31:43.248Z,101209.13
2019-05-17T02:34:17.208Z,101209.83
2019-05-17T02:36:53.361Z,101210.92
2019-05-17T02:39:28.816Z,101205.66
2019-05-17T02:42:03.922Z,101206.48
2019-05-17T02:44:39.065Z,101196.80
2019-05-17T02:47:14.142Z,101198.34
2019-05-17T02:49:49.254Z,101199.96
2019-05-17T02:52:24.266Z,101194.42
2019-05-17T02:54:59.268Z,101195.78
2019-05-17T02:57:35.199Z,101192.78
2019-05-17T03:00:13.328Z,101188.89
2019-05-17T03:02:47.794Z,101188.82
2019-05-17T03:05:23.356Z,101195.49
2019-05-17T03:07:58.481Z,101187.80
2019-05-17T03:10:34.117Z,101186.79
2019-05-17T03:13:12.614Z,101188.36
2019-05-17T03:15:46.084Z,101186.02
2019-05-17T03:18:22.958Z,101188.66
2019-05-17T03:20:57.808Z,101182.32
2019-05-17T03:23:35.552Z,101182.92
2019-05-17T03:26:13.193Z,101176.56
2019-05-17T03:28:48.030Z,101172.56
2019-05-17T03:31:26.280Z,101178.11
2019-05-17T03:34:06.230Z,101180.50
2019-05-17T03:36:39.254Z,101181.30
2019-05-17T03:39:14.228Z,101183.58
2019-05-17T03:41:49.236Z,101186.27
2019-05-17T03:44:24.214Z,101181.88
2019-05-17T03:47:02.166Z,101188.30
2019-05-17T03:49:39.332Z,101181.91
2019-05-17T03:52:13.691Z,101183.70
2019-05-17T03:54:48.868Z,101176.03
2019-05-17T03:57:24.275Z,101183.14
2019-05-17T03:59:59.238Z,101175.73
2019-05-17T04:02:35.323Z,101179.93
2019-05-17T04:05:12.622Z,101177.83
2019-05-17T04:07:48.011Z,101171.23
2019-05-17T04:10:23.075Z,101175.72
2019-05-17T04:12:58.254Z,101173.27
2019-05-17T04:15:33.423Z,101178.05
2019-05-17T04:18:08.962Z,101174.17
2019-05-17T04:20:44.026Z,101172.26
2019-05-17T04:23:19.008Z,101170.56
2019-05-17T04:25:54.013Z,101170.33
2019-05-17T04:28:33.586Z,101165.74
2019-05-17T04:31:08.912Z,101164.75
2019-05-17T04:33:44.046Z,101168.38
2019-05-17T04:36:22.253Z,101168.13
2019-05-17T04:41:49.274Z,101169.20
2019-05-17T04:44:23.051Z,101165.00
2019-05-17T04:46:57.454Z,101161.83
2019-05-17T04:49:33.531Z,101160.09
2019-05-17T04:52:13.728Z,101165.41
2019-05-17T04:54:48.375Z,101164.40
2019-05-17T04:57:24.181Z,101164.11
2019-05-17T04:59:59.310Z,101161.88
2019-05-17T05:02:34.449Z,101161.70
2019-05-17T05:05:13.089Z,101159.93
2019-05-17T05:07:46.384Z,101167.39
2019-05-17T05:10:24.339Z,101167.29
2019-05-17T05:12:59.404Z,101166.33
2019-05-17T05:15:44.779Z,101158.18
2019-05-17T05:18:22.198Z,101160.03
2019-05-17T05:20:56.876Z,101156.91
2019-05-17T05:23:31.998Z,101151.06
2019-05-17T05:26:06.950Z,101156.88
2019-05-17T05:28:42.110Z,101153.79
2019-05-17T05:31:17.153Z,101148.47
2019-05-17T05:33:52.342Z,101152.08
2019-05-17T05:36:27.435Z,101155.24
2019-05-17T05:39:02.613Z,101154.17
2019-05-17T05:41:37.824Z,101153.77
2019-05-17T05:44:12.940Z,101155.06
2019-05-17T05:46:48.679Z,101155.68
2019-05-17T05:49:23.675Z,101151.42
2019-05-17T05:51:58.769Z,101153.89
2019-05-17T05:54:35.063Z,101153.73
2019-05-17T05:57:12.481Z,101153.22
2019-05-17T05:59:47.009Z,101155.35
2019-05-17T06:02:22.155Z,101156.77
2019-05-17T06:04:57.915Z,101159.20
2019-05-17T06:07:33.426Z,101154.34
2019-05-17T06:10:14.163Z,101151.69
2019-05-17T06:12:51.623Z,101155.46
2019-05-17T06:15:25.954Z,101153.60
2019-05-17T06:18:02.920Z,101148.86
2019-05-17T06:20:37.772Z,101151.02
2019-05-17T06:23:12.775Z,101151.59
2019-05-17T06:25:47.786Z,101149.28
2019-05-17T06:28:22.781Z,101149.19
2019-05-17T06:30:57.868Z,101144.66
2019-05-17T06:33:34.725Z,101152.04
2019-05-17T06:36:10.096Z,101149.16
2019-05-17T06:38:45.214Z,101149.73
2019-05-17T06:41:21.522Z,101148.20
2019-05-17T06:43:56.770Z,101143.55
2019-05-17T06:46:32.458Z,101142.52
2019-05-17T06:49:07.696Z,101138.63
2019-05-17T06:51:42.843Z,101133.14
2019-05-17T06:54:17.861Z,101136.84
2019-05-17T06:56:52.955Z,101140.59
2019-05-17T06:59:28.057Z,101133.92
2019-05-17T07:02:03.089Z,101128.77
2019-05-17T07:04:39.490Z,101125.69
2019-05-17T07:07:26.855Z,101124.02
2019-05-17T07:10:02.500Z,101126.95
2019-05-17T07:12:51.096Z,101126.41
2019-05-17T07:15:14.525Z,101122.14
2019-05-17T07:17:50.578Z,101128.39
2019-05-17T07:20:26.640Z,101129.40
2019-05-17T07:23:01.736Z,101122.86
2019-05-17T07:25:36.727Z,101124.24
2019-05-17T07:28:11.732Z,101121.22
2019-05-17T07:30:46.984Z,101128.98
2019-05-17T07:33:22.075Z,101125.08
2019-05-17T07:35:59.370Z,101126.67
2019-05-17T07:38:34.537Z,101126.14
2019-05-17T07:41:10.193Z,101127.75
2019-05-17T07:43:46.469Z,101119.53
2019-05-17T07:46:21.654Z,101113.45
2019-05-17T07:49:00.200Z,101116.37
2019-05-17T07:51:34.344Z,101113.72
2019-05-17T07:54:10.430Z,101108.16
2019-05-17T07:56:45.706Z,101115.05
2019-05-17T07:59:20.785Z,101114.74
2019-05-17T08:01:55.912Z,101119.53
2019-05-17T08:04:31.300Z,101110.55
2019-05-17T08:07:06.553Z,101115.83
2019-05-17T08:09:41.536Z,101114.51
2019-05-17T08:12:16.916Z,101116.11
2019-05-17T08:14:53.008Z,101116.66
2019-05-17T08:17:30.259Z,101113.45
2019-05-17T08:20:05.668Z,101113.75
2019-05-17T08:22:40.873Z,101106.84
2019-05-17T08:25:20.569Z,101111.08
2019-05-17T08:27:55.538Z,101110.27
2019-05-17T08:30:30.614Z,101108.69
2019-05-17T08:33:05.664Z,101111.33
2019-05-17T08:35:40.776Z,101111.87
2019-05-17T08:38:15.833Z,101110.53
2019-05-17T08:40:51.150Z,101112.42
2019-05-17T08:43:39.861Z,101103.41
2019-05-17T08:46:04.024Z,101106.08
2019-05-17T08:48:40.147Z,101100.50
2019-05-17T08:51:15.369Z,101106.30
2019-05-17T08:53:50.525Z,101099.98
2019-05-17T08:56:25.575Z,101101.55
2019-05-17T08:59:00.909Z,101099.97
2019-05-17T09:01:38.447Z,101094.69
2019-05-17T09:04:13.624Z,101094.38
2019-05-17T09:06:50.468Z,101081.00
2019-05-17T09:09:26.671Z,101077.16
2019-05-17T09:12:02.032Z,101071.21
2019-05-17T09:14:37.015Z,101066.96
2019-05-17T09:17:12.190Z,101065.86
2019-05-17T09:19:47.227Z,101058.75
2019-05-17T09:22:22.271Z,101058.08
2019-05-17T09:24:59.471Z,101055.47
2019-05-17T09:27:34.009Z,101049.61
2019-05-17T09:30:10.965Z,101038.94
2019-05-17T09:32:46.192Z,101043.31
2019-05-17T09:35:21.268Z,101040.59
2019-05-17T09:37:56.368Z,101038.84
2019-05-17T09:40:31.353Z,101036.19
2019-05-17T09:43:06.578Z,101037.08
2019-05-17T09:45:41.710Z,101029.59
2019-05-17T09:48:19.470Z,101031.58
2019-05-17T09:50:53.593Z,101019.34
2019-05-17T09:53:30.755Z,101019.16
2019-05-17T09:56:05.505Z,101013.84
2019-05-17T09:58:40.627Z,101017.06
2019-05-17T10:01:15.824Z,101007.06
2019-05-17T10:03:50.931Z,101001.19
2019-05-17T10:06:25.937Z,101005.14
2019-05-17T10:09:00.886Z,101013.98
2019-05-17T10:11:41.015Z,101005.37
2019-05-17T10:14:27.478Z,101009.35
2019-05-17T10:16:52.798Z,101003.73
2019-05-17T10:19:29.445Z,100998.92
2019-05-17T10:22:04.857Z,100993.26
2019-05-17T10:24:42.424Z,101002.09
2019-05-17T10:27:19.497Z,100994.28
2019-05-17T10:29:54.224Z,100984.81
2019-05-17T10:32:30.934Z,100979.54
2019-05-17T10:35:07.041Z,100990.75
2019-05-17T10:37:42.133Z,100982.70
2019-05-17T10:40:17.537Z,100988.66
2019-05-17T10:42:52.553Z,100986.20
2019-05-17T10:45:27.506Z,100990.34
2019-05-17T10:48:02.519Z,100986.09
2019-05-17T10:50:40.668Z,100980.70
2019-05-17T10:53:15.587Z,100985.63
2019-05-17T10:55:50.671Z,100981.27
2019-05-17T10:58:25.651Z,100985.57
2019-05-17T11:01:00.989Z,100978.34
2019-05-17T11:03:39.718Z,100977.56
2019-05-17T11:06:14.642Z,100978.95
2019-05-17T11:08:50.238Z,100991.44
2019-05-17T11:11:25.321Z,100984.19
2019-05-17T11:14:00.315Z,100985.61
2019-05-17T11:16:35.387Z,100987.94
2019-05-17T11:19:10.490Z,100977.61
2019-05-17T11:21:45.519Z,100975.69
2019-05-17T11:24:21.316Z,100980.00
2019-05-17T11:26:56.296Z,100974.08
2019-05-17T11:29:31.415Z,100973.03
2019-05-17T11:32:06.457Z,100967.63
2019-05-17T11:34:41.443Z,100967.81
2019-05-17T11:37:16.642Z,100966.52
2019-05-17T11:39:51.670Z,100963.80
2019-05-17T11:42:26.796Z,100973.66
2019-05-17T11:45:01.833Z,100966.76
2019-05-17T11:47:36.962Z,100960.72
2019-05-17T11:50:12.303Z,100966.09
2019-05-17T11:52:47.618Z,100963.14
2019-05-17T11:55:22.588Z,100954.72
2019-05-17T11:57:57.672Z,100954.20
2019-05-17T12:00:33.379Z,100949.53
2019-05-17T12:03:08.587Z,100950.42
2019-05-17T12:05:43.674Z,100946.48
2019-05-17T12:08:18.779Z,100947.23
2019-05-17T12:10:53.923Z,100951.34
2019-05-17T12:13:29.651Z,100943.62
2019-05-17T12:16:04.853Z,100942.16
2019-05-17T12:18:39.985Z,100946.61
2019-05-17T12:21:15.087Z,100941.56
2019-05-17T12:23:50.125Z,100941.54
2019-05-17T12:26:25.188Z,100935.36
2019-05-17T12:29:01.209Z,100935.03
2019-05-17T12:31:36.359Z,100926.34
2019-05-17T12:34:11.408Z,100932.20
2019-05-17T12:36:46.418Z,100931.81
2019-05-17T12:39:21.541Z,100921.47
2019-05-17T12:41:56.623Z,100932.19
2019-05-17T12:44:31.887Z,100933.98
2019-05-17T12:47:07.824Z,100928.39
2019-05-17T12:49:43.049Z,100930.63
2019-05-17T12:52:18.244Z,100929.97
2019-05-17T12:54:53.276Z,100931.09
2019-05-17T12:57:29.084Z,100931.16
2019-05-17T13:00:04.188Z,100932.03
2019-05-17T13:02:39.159Z,100931.62
2019-05-17T13:05:14.322Z,100929.66
2019-05-17T13:07:49.413Z,100936.31
2019-05-17T13:10:24.555Z,100929.45
2019-05-17T13:12:59.537Z,100932.06
2019-05-17T13:15:34.747Z,100930.72
2019-05-17T13:18:09.894Z,100931.98
2019-05-17T13:20:44.935Z,100930.33
2019-05-17T13:23:19.953Z,100930.80
2019-05-17T13:25:55.241Z,100935.98
2019-05-17T13:28:30.318Z,100925.17
2019-05-17T13:31:05.354Z,100922.23
2019-05-17T13:33:40.373Z,100924.23
2019-05-17T13:36:15.420Z,100917.38
2019-05-17T13:38:50.466Z,100923.62
2019-05-17T13:41:25.561Z,100921.98
2019-05-17T13:44:00.652Z,100919.41
2019-05-17T13:46:35.698Z,100923.12
2019-05-17T13:49:10.899Z,100919.33
2019-05-17T13:51:46.096Z,100914.36
2019-05-17T13:54:21.207Z,100914.48
2019-05-17T13:56:56.321Z,100912.70
2019-05-17T13:59:31.451Z,100911.61
2019-05-17T14:02:06.519Z,100904.80
2019-05-17T14:04:41.600Z,100904.16
2019-05-17T14:07:16.648Z,100907.72
2019-05-17T14:09:52.832Z,100909.95
2019-05-17T14:12:28.021Z,100901.48
2019-05-17T14:15:03.130Z,100901.90
2019-05-17T14:17:38.194Z,100898.86
2019-05-17T14:20:13.547Z,100900.12
2019-05-17T14:22:48.604Z,100906.02
2019-05-17T14:25:24.864Z,100904.94
2019-05-17T14:27:59.905Z,100905.03
2019-05-17T14:30:35.238Z,100901.37
2019-05-17T14:33:10.419Z,100905.52
2019-05-17T14:35:45.553Z,100906.20
2019-05-17T14:38:20.571Z,100914.00
2019-05-17T14:41:11.217Z,100908.93
2019-05-17T14:43:32.487Z,100901.96
2019-05-17T14:46:08.638Z,100901.13
2019-05-17T14:48:43.721Z,100904.77
2019-05-17T14:51:18.719Z,100901.05
2019-05-17T14:53:53.777Z,100903.64
2019-05-17T14:56:28.787Z,100904.75
2019-05-17T14:59:04.035Z,100904.69
2019-05-17T15:01:39.009Z,100895.22
2019-05-17T15:04:14.006Z,100898.66
2019-05-17T15:06:49.059Z,100896.93
2019-05-17T15:09:25.025Z,100892.13
2019-05-17T15:12:00.057Z,100885.56
2019-05-17T15:14:35.065Z,100885.13
2019-05-17T15:17:10.137Z,100889.97
2019-05-17T15:19:45.254Z,100891.22
2019-05-17T15:22:20.431Z,100887.36
2019-05-17T15:24:55.402Z,100878.98
2019-05-17T15:27:30.545Z,100881.50
2019-05-17T15:30:06.406Z,100884.86
2019-05-17T15:32:41.405Z,100878.86
2019-05-17T15:35:16.476Z,100878.59
2019-05-17T15:37:52.463Z,100874.03
2019-05-17T15:40:27.643Z,100875.86
2019-05-17T15:43:02.861Z,100872.36
2019-05-17T15:45:37.962Z,100871.50
2019-05-17T15:48:13.245Z,100872.45
2019-05-17T15:50:48.319Z,100870.09
2019-05-17T15:53:23.469Z,100875.20
2019-05-17T15:55:58.617Z,100881.27
2019-05-17T15:58:33.580Z,100880.44
2019-05-17T16:01:09.910Z,100871.80
2019-05-17T16:03:45.922Z,100869.14
2019-05-17T16:06:20.969Z,100864.86
2019-05-17T16:08:56.164Z,100864.45
2019-05-17T16:11:31.205Z,100867.48
2019-05-17T16:14:06.368Z,100861.91
2019-05-17T16:16:41.474Z,100864.79
2019-05-17T16:19:17.506Z,100858.97
2019-05-17T16:21:52.693Z,100853.01
2019-05-17T16:24:27.705Z,100849.35
2019-05-17T16:27:02.736Z,100851.69
2019-05-17T16:29:37.716Z,100850.18
2019-05-17T16:32:12.947Z,100845.33
2019-05-17T16:34:49.002Z,100845.55
2019-05-17T16:37:23.997Z,100849.15
2019-05-17T16:39:59.084Z,100848.70
2019-05-17T16:42:34.306Z,100850.90
2019-05-17T16:45:11.602Z,100844.44
2019-05-17T16:47:47.594Z,100845.72
2019-05-17T16:50:22.588Z,100850.13
2019-05-17T16:53:05.718Z,100848.25
2019-05-17T16:55:34.366Z,100840.86
2019-05-17T16:58:09.380Z,100842.78
2019-05-17T17:00:46.294Z,100838.53
2019-05-17T17:03:21.364Z,100837.30
2019-05-17T17:05:56.454Z,100840.00
2019-05-17T17:08:31.504Z,100835.37
2019-05-17T17:11:08.207Z,100836.20
2019-05-17T17:13:43.333Z,100829.45
2019-05-17T17:16:18.331Z,100827.02
2019-05-17T17:18:53.368Z,100833.31
2019-05-17T17:21:28.400Z,100830.39
2019-05-17T17:24:03.814Z,100827.52
2019-05-17T17:26:38.806Z,100831.45
2019-05-17T17:29:15.946Z,100829.34
2019-05-17T17:31:51.138Z,100827.74
2019-05-17T17:34:26.303Z,100827.70
2019-05-17T17:37:01.305Z,100822.00
2019-05-17T17:39:37.411Z,100824.32
2019-05-17T17:42:12.713Z,100824.09
2019-05-17T17:44:47.895Z,100818.30
2019-05-17T17:47:22.860Z,100817.30
2019-05-17T17:49:58.072Z,100821.64
2019-05-17T17:52:35.012Z,100816.89
2019-05-17T17:55:10.729Z,100819.05
2019-05-17T17:57:45.799Z,100821.46
2019-05-17T18:00:21.926Z,100821.42
2019-05-17T18:02:56.986Z,100820.46
2019-05-17T18:05:32.070Z,100824.48
2019-05-17T18:08:07.839Z,100822.73
2019-05-17T18:10:46.328Z,100826.55
2019-05-17T18:13:19.798Z,100824.25
2019-05-17T18:15:55.076Z,100827.77
2019-05-17T18:18:30.065Z,100829.91
2019-05-17T18:21:09.820Z,100826.46
2019-05-17T18:23:44.994Z,100825.99
2019-05-17T18:26:20.172Z,100820.73
2019-05-17T18:28:55.383Z,100821.32
2019-05-17T18:31:30.592Z,100827.67
2019-05-17T18:34:05.949Z,100825.84
2019-05-17T18:36:41.131Z,100829.55
2019-05-17T18:39:16.438Z,100828.97
2019-05-17T18:41:54.627Z,100835.89
2019-05-17T18:44:28.580Z,100834.06
2019-05-17T18:47:07.633Z,100829.04
2019-05-17T18:49:43.055Z,100827.36
2019-05-17T18:52:18.167Z,100831.10
2019-05-17T18:54:53.363Z,100824.95
2019-05-17T18:57:28.634Z,100825.26
2019-05-17T19:00:04.481Z,100828.73
2019-05-17T19:02:39.940Z,100826.86
2019-05-17T19:05:17.333Z,100828.49
2019-05-17T19:07:52.526Z,100827.72
2019-05-17T19:10:27.826Z,100821.95
2019-05-17T19:13:03.009Z,100825.95
2019-05-17T19:15:38.104Z,100831.02
2019-05-17T19:18:13.239Z,100835.77
2019-05-17T19:20:48.547Z,100838.69
2019-05-17T19:23:25.892Z,100839.23
2019-05-17T19:26:00.748Z,100840.91
2019-05-17T19:28:35.977Z,100842.26
2019-05-17T19:31:11.220Z,100843.34
2019-05-17T19:33:46.307Z,100846.83
2019-05-17T19:36:21.602Z,100844.97
2019-05-17T19:38:56.875Z,100850.84
2019-05-17T19:41:32.456Z,100845.54
2019-05-17T19:44:07.602Z,100843.97
2019-05-17T19:46:43.512Z,100841.54
2019-05-17T19:49:18.780Z,100850.02
2019-05-17T19:51:54.059Z,100850.86
2019-05-17T19:54:29.322Z,100848.52
2019-05-17T19:57:04.522Z,100852.48
2019-05-17T19:59:39.715Z,100847.16
2019-05-17T20:02:15.256Z,100844.81
2019-05-17T20:04:50.416Z,100848.52
2019-05-17T20:07:25.452Z,100844.30
2019-05-17T20:10:00.607Z,100840.66
2019-05-17T20:12:35.836Z,100840.36
2019-05-17T20:15:17.733Z,100838.03
2019-05-17T20:17:48.876Z,100838.30
2019-05-17T20:20:24.007Z,100840.69
2019-05-17T20:22:59.506Z,100840.44
2019-05-17T20:25:34.942Z,100843.08
2019-05-17T20:28:09.967Z,100839.63
2019-05-17T20:30:45.182Z,100839.09
2019-05-17T20:33:21.364Z,100839.36
2019-05-17T20:35:56.468Z,100836.77
2019-05-17T20:38:31.463Z,100832.81
2019-05-17T20:41:10.271Z,100835.70
2019-05-17T20:43:45.314Z,100840.20
2019-05-17T20:46:20.428Z,100837.31
2019-05-17T20:48:55.596Z,100840.47
2019-05-17T20:51:30.785Z,100837.02
2019-05-17T20:54:05.807Z,100836.26
2019-05-17T20:56:43.210Z,100832.32
2019-05-17T20:59:18.231Z,100830.72
2019-05-17T21:01:53.869Z,100832.56
2019-05-17T21:04:28.866Z,100825.73
2019-05-17T21:07:04.326Z,100833.66
2019-05-17T21:09:40.205Z,100831.59
2019-05-17T21:12:15.415Z,100829.78
2019-05-17T21:14:50.514Z,100828.45
2019-05-17T21:17:25.565Z,100830.88
2019-05-17T21:20:00.627Z,100830.88
2019-05-17T21:22:35.896Z,100834.88
2019-05-17T21:25:11.283Z,100834.34
2019-05-17T21:27:46.502Z,100829.08
2019-05-17T21:30:21.706Z,100831.77
2019-05-17T21:32:58.068Z,100824.91
2019-05-17T21:35:33.457Z,100834.68
2019-05-17T21:38:08.631Z,100830.22
2019-05-17T21:40:43.646Z,100826.26
2019-05-17T21:43:18.679Z,100828.62
2019-05-17T21:46:03.651Z,100829.39
2019-05-17T21:48:33.235Z,100834.69
2019-05-17T21:51:08.234Z,100828.89
2019-05-17T21:53:43.231Z,100827.27
2019-05-17T21:56:18.247Z,100830.44
2019-05-17T21:58:53.289Z,100832.55
2019-05-17T22:01:31.047Z,100831.48
2019-05-17T22:04:06.199Z,100826.47
2019-05-17T22:06:41.209Z,100831.48
2019-05-17T22:09:16.199Z,100826.46
2019-05-17T22:11:54.064Z,100832.78
2019-05-17T22:14:29.063Z,100830.94
2019-05-17T22:17:04.088Z,100824.59
2019-05-17T22:19:39.136Z,100824.05
2019-05-17T22:22:14.197Z,100820.34
2019-05-17T22:24:49.288Z,100821.66
2019-05-17T22:27:24.281Z,100826.93
2019-05-17T22:29:59.291Z,100820.86
2019-05-17T22:32:34.328Z,100820.59
2019-05-17T22:35:09.681Z,100820.27
2019-05-17T22:37:44.773Z,100825.30
2019-05-17T22:40:19.767Z,100826.33
2019-05-17T22:42:54.798Z,100825.24
2019-05-17T22:45:29.775Z,100814.65
2019-05-17T22:48:04.920Z,100818.61
2019-05-17T22:50:45.217Z,100809.48
2019-05-17T22:53:20.292Z,100813.39
2019-05-17T22:55:55.396Z,100819.72
2019-05-17T22:58:30.470Z,100815.53
2019-05-17T23:01:08.451Z,100813.95
2019-05-17T23:03:43.448Z,100815.81
2019-05-17T23:06:18.449Z,100817.59
2019-05-17T23:08:54.248Z,100810.98
2019-05-17T23:11:29.333Z,100814.93
2019-05-17T23:14:04.522Z,100816.02
2019-05-17T23:16:51.183Z,100813.31
2019-05-17T23:19:16.261Z,100812.53
2019-05-17T23:21:51.267Z,100803.56
2019-05-17T23:24:26.320Z,100802.78
2019-05-17T23:27:01.652Z,100804.62
2019-05-17T23:29:36.657Z,100806.95
2019-05-17T23:32:11.760Z,100799.00
2019-05-17T23:34:46.877Z,100802.67
2019-05-17T23:37:22.055Z,100799.00
2019-05-17T23:39:57.075Z,100796.84
2019-05-17T23:42:32.296Z,100802.61
2019-05-17T23:45:08.081Z,100799.37
2019-05-17T23:47:43.207Z,100800.98
2019-05-17T23:50:18.221Z,100803.83
2019-05-17T23:52:53.232Z,100803.05
2019-05-17T23:55:28.339Z,100805.64
2019-05-17T23:58:03.378Z,100799.56
